sensor_id;sensor_type;location;lat;lon;timestamp;P1;durP1;ratioP1;P2;durP2;ratioP2
62947;SDS011;51940;52.126;-0.994;2022-12-16T00:00:21;12.90;;;9.00;;
62947;SDS011;51940;52.126;-0.994;2022-12-16T00:02:47;15.40;;;10.50;;
62947;SDS011;51940;52.126;-0.994;2022-12-16T00:05:13;13.50;;;9.00;;
62947;SDS011;51940;52.126;-0.994;2022-12-16T00:07:39;15.30;;;9.60;;
62947;SDS011;51940;52.126;-0.994;2022-12-16T00:10:05;14.90;;;9.80;;
62947;SDS011;51940;52.126;-0.994;2022-12-16T00:12:31;15.90;;;9.90;;
62947;SDS011;51940;52.126;-0.994;2022-12-16T00:14:56;14.40;;;10.00;;
62947;SDS011;51940;52.126;-0.994;2022-12-16T00:17:21;14.90;;;9.80;;
62947;SDS011;51940;52.126;-0.994;2022-12-16T00:19:47;17.40;;;10.30;;
62947;SDS011;51940;52.126;-0.994;2022-12-16T00:22:12;16.40;;;9.50;;
62947;SDS011;51940;52.126;-0.994;2022-12-16T00:24:37;14.70;;;9.60;;
62947;SDS011;51940;52.126;-0.994;2022-12-16T00:27:03;15.50;;;9.40;;
62947;SDS011;51940;52.126;-0.994;2022-12-16T00:29:28;13.60;;;9.30;;
62947;SDS011;51940;52.126;-0.994;2022-12-16T00:31:54;16.40;;;9.90;;
62947;SDS011;51940;52.126;-0.994;2022-12-16T00:34:19;15.50;;;9.90;;
62947;SDS011;51940;52.126;-0.994;2022-12-16T00:36:45;14.80;;;9.70;;
62947;SDS011;51940;52.126;-0.994;2022-12-16T00:39:10;15.50;;;9.70;;
62947;SDS011;51940;52.126;-0.994;2022-12-16T00:41:35;16.60;;;9.70;;
62947;SDS011;51940;52.126;-0.994;2022-12-16T00:44:01;15.00;;;10.60;;
62947;SDS011;51940;52.126;-0.994;2022-12-16T00:46:27;19.10;;;10.00;;
62947;SDS011;51940;52.126;-0.994;2022-12-16T00:48:52;14.90;;;9.90;;
62947;SDS011;51940;52.126;-0.994;2022-12-16T00:51:18;15.10;;;10.10;;
62947;SDS011;51940;52.126;-0.994;2022-12-16T00:53:44;13.60;;;10.10;;
62947;SDS011;51940;52.126;-0.994;2022-12-16T00:56:10;20.30;;;10.70;;
62947;SDS011;51940;52.126;-0.994;2022-12-16T00:58:40;16.60;;;10.30;;
62947;SDS011;51940;52.126;-0.994;2022-12-16T01:01:06;19.10;;;10.50;;
62947;SDS011;51940;52.126;-0.994;2022-12-16T01:03:31;16.00;;;9.70;;
62947;SDS011;51940;52.126;-0.994;2022-12-16T01:05:57;14.40;;;10.10;;
62947;SDS011;51940;52.126;-0.994;2022-12-16T01:08:23;21.70;;;10.40;;
62947;SDS011;51940;52.126;-0.994;2022-12-16T01:10:52;12.40;;;9.90;;
62947;SDS011;51940;52.126;-0.994;2022-12-16T01:13:23;17.70;;;11.00;;
62947;SDS011;51940;52.126;-0.994;2022-12-16T01:15:50;15.60;;;10.00;;
62947;SDS011;51940;52.126;-0.994;2022-12-16T01:18:15;15.60;;;10.60;;
62947;SDS011;51940;52.126;-0.994;2022-12-16T01:20:43;18.20;;;10.70;;
62947;SDS011;51940;52.126;-0.994;2022-12-16T01:23:08;17.70;;;10.40;;
62947;SDS011;51940;52.126;-0.994;2022-12-16T01:25:34;15.20;;;10.40;;
62947;SDS011;51940;52.126;-0.994;2022-12-16T01:28:00;16.30;;;10.40;;
62947;SDS011;51940;52.126;-0.994;2022-12-16T01:30:25;17.00;;;10.60;;
62947;SDS011;51940;52.126;-0.994;2022-12-16T01:32:50;17.90;;;10.90;;
62947;SDS011;51940;52.126;-0.994;2022-12-16T01:35:16;14.40;;;10.30;;
62947;SDS011;51940;52.126;-0.994;2022-12-16T01:37:41;15.00;;;11.00;;
62947;SDS011;51940;52.126;-0.994;2022-12-16T01:40:08;14.60;;;9.90;;
62947;SDS011;51940;52.126;-0.994;2022-12-16T01:42:42;17.20;;;10.90;;
62947;SDS011;51940;52.126;-0.994;2022-12-16T01:47:49;16.60;;;10.80;;
62947;SDS011;51940;52.126;-0.994;2022-12-16T01:50:18;15.70;;;11.20;;
62947;SDS011;51940;52.126;-0.994;2022-12-16T01:52:45;17.00;;;11.40;;
62947;SDS011;51940;52.126;-0.994;2022-12-16T01:55:19;19.60;;;11.20;;
62947;SDS011;51940;52.126;-0.994;2022-12-16T01:57:50;16.30;;;11.00;;
62947;SDS011;51940;52.126;-0.994;2022-12-16T02:00:19;19.10;;;11.40;;
62947;SDS011;51940;52.126;-0.994;2022-12-16T02:02:45;16.30;;;11.30;;
62947;SDS011;51940;52.126;-0.994;2022-12-16T02:05:12;18.20;;;10.70;;
62947;SDS011;51940;52.126;-0.994;2022-12-16T02:07:53;17.80;;;11.50;;
62947;SDS011;51940;52.126;-0.994;2022-12-16T02:10:29;17.90;;;11.40;;
62947;SDS011;51940;52.126;-0.994;2022-12-16T02:13:18;18.50;;;11.90;;
62947;SDS011;51940;52.126;-0.994;2022-12-16T02:16:26;16.50;;;11.50;;
62947;SDS011;51940;52.126;-0.994;2022-12-16T02:27:39;19.40;;;11.70;;
62947;SDS011;51940;52.126;-0.994;2022-12-16T02:33:13;19.20;;;11.20;;
62947;SDS011;51940;52.126;-0.994;2022-12-16T02:35:55;19.00;;;11.30;;
62947;SDS011;51940;52.126;-0.994;2022-12-16T02:38:31;16.40;;;11.30;;
62947;SDS011;51940;52.126;-0.994;2022-12-16T02:41:05;16.50;;;10.70;;
62947;SDS011;51940;52.126;-0.994;2022-12-16T02:43:50;20.70;;;12.60;;
62947;SDS011;51940;52.126;-0.994;2022-12-16T02:48:51;18.50;;;11.10;;
62947;SDS011;51940;52.126;-0.994;2022-12-16T02:51:17;17.10;;;11.70;;
62947;SDS011;51940;52.126;-0.994;2022-12-16T02:53:44;20.50;;;11.50;;
62947;SDS011;51940;52.126;-0.994;2022-12-16T02:56:20;17.90;;;12.40;;
62947;SDS011;51940;52.126;-0.994;2022-12-16T03:02:00;17.30;;;11.40;;
62947;SDS011;51940;52.126;-0.994;2022-12-16T03:04:51;21.00;;;12.60;;
62947;SDS011;51940;52.126;-0.994;2022-12-16T03:07:25;16.90;;;11.40;;
62947;SDS011;51940;52.126;-0.994;2022-12-16T03:09:55;18.00;;;11.00;;
62947;SDS011;51940;52.126;-0.994;2022-12-16T03:12:22;16.80;;;11.20;;
62947;SDS011;51940;52.126;-0.994;2022-12-16T03:14:52;17.60;;;11.10;;
62947;SDS011;51940;52.126;-0.994;2022-12-16T03:17:19;15.90;;;11.10;;
62947;SDS011;51940;52.126;-0.994;2022-12-16T03:19:49;17.20;;;11.20;;
62947;SDS011;51940;52.126;-0.994;2022-12-16T03:22:22;17.90;;;11.50;;
62947;SDS011;51940;52.126;-0.994;2022-12-16T03:24:51;18.60;;;11.60;;
62947;SDS011;51940;52.126;-0.994;2022-12-16T03:27:19;17.50;;;11.30;;
62947;SDS011;51940;52.126;-0.994;2022-12-16T03:29:53;19.70;;;11.40;;
62947;SDS011;51940;52.126;-0.994;2022-12-16T03:32:27;17.30;;;11.20;;
62947;SDS011;51940;52.126;-0.994;2022-12-16T03:35:01;19.00;;;11.40;;
62947;SDS011;51940;52.126;-0.994;2022-12-16T03:37:53;19.40;;;11.40;;
62947;SDS011;51940;52.126;-0.994;2022-12-16T03:40:21;19.20;;;11.80;;
62947;SDS011;51940;52.126;-0.994;2022-12-16T03:42:50;16.60;;;11.30;;
62947;SDS011;51940;52.126;-0.994;2022-12-16T03:45:24;15.80;;;10.70;;
62947;SDS011;51940;52.126;-0.994;2022-12-16T03:47:55;19.90;;;12.00;;
62947;SDS011;51940;52.126;-0.994;2022-12-16T03:50:24;19.10;;;11.40;;
62947;SDS011;51940;52.126;-0.994;2022-12-16T03:52:55;20.40;;;11.60;;
62947;SDS011;51940;52.126;-0.994;2022-12-16T03:55:20;18.20;;;11.70;;
62947;SDS011;51940;52.126;-0.994;2022-12-16T03:57:46;16.70;;;11.30;;
62947;SDS011;51940;52.126;-0.994;2022-12-16T04:00:11;22.70;;;12.10;;
62947;SDS011;51940;52.126;-0.994;2022-12-16T04:02:37;22.30;;;11.50;;
62947;SDS011;51940;52.126;-0.994;2022-12-16T04:05:03;20.60;;;11.50;;
62947;SDS011;51940;52.126;-0.994;2022-12-16T04:07:29;22.40;;;12.90;;
62947;SDS011;51940;52.126;-0.994;2022-12-16T04:09:55;21.20;;;12.60;;
62947;SDS011;51940;52.126;-0.994;2022-12-16T04:12:20;18.90;;;11.80;;
62947;SDS011;51940;52.126;-0.994;2022-12-16T04:15:04;17.50;;;11.60;;
62947;SDS011;51940;52.126;-0.994;2022-12-16T04:17:50;19.30;;;11.90;;
62947;SDS011;51940;52.126;-0.994;2022-12-16T04:20:38;19.60;;;12.50;;
62947;SDS011;51940;52.126;-0.994;2022-12-16T04:23:26;27.70;;;11.70;;
62947;SDS011;51940;52.126;-0.994;2022-12-16T04:26:13;18.40;;;11.60;;
62947;SDS011;51940;52.126;-0.994;2022-12-16T04:28:39;20.30;;;11.70;;
62947;SDS011;51940;52.126;-0.994;2022-12-16T04:31:04;18.20;;;11.30;;
62947;SDS011;51940;52.126;-0.994;2022-12-16T04:33:30;18.30;;;11.50;;
62947;SDS011;51940;52.126;-0.994;2022-12-16T04:36:15;19.80;;;11.80;;
62947;SDS011;51940;52.126;-0.994;2022-12-16T04:38:59;17.40;;;11.00;;
62947;SDS011;51940;52.126;-0.994;2022-12-16T04:41:43;20.90;;;12.50;;
62947;SDS011;51940;52.126;-0.994;2022-12-16T04:44:27;21.20;;;11.90;;
62947;SDS011;51940;52.126;-0.994;2022-12-16T04:47:11;17.20;;;10.90;;
62947;SDS011;51940;52.126;-0.994;2022-12-16T04:49:56;20.60;;;12.50;;
62947;SDS011;51940;52.126;-0.994;2022-12-16T04:52:40;16.50;;;10.40;;
62947;SDS011;51940;52.126;-0.994;2022-12-16T04:55:24;21.00;;;11.70;;
62947;SDS011;51940;52.126;-0.994;2022-12-16T04:58:08;23.50;;;11.90;;
62947;SDS011;51940;52.126;-0.994;2022-12-16T05:00:52;17.60;;;11.40;;
62947;SDS011;51940;52.126;-0.994;2022-12-16T05:03:37;20.30;;;12.00;;
62947;SDS011;51940;52.126;-0.994;2022-12-16T05:06:21;18.20;;;12.50;;
62947;SDS011;51940;52.126;-0.994;2022-12-16T05:09:05;21.10;;;11.90;;
62947;SDS011;51940;52.126;-0.994;2022-12-16T05:14:34;19.30;;;11.90;;
62947;SDS011;51940;52.126;-0.994;2022-12-16T05:17:19;21.30;;;12.10;;
62947;SDS011;51940;52.126;-0.994;2022-12-16T05:20:03;23.00;;;12.20;;
62947;SDS011;51940;52.126;-0.994;2022-12-16T05:25:32;16.00;;;11.00;;
62947;SDS011;51940;52.126;-0.994;2022-12-16T05:28:16;17.80;;;11.50;;
62947;SDS011;51940;52.126;-0.994;2022-12-16T05:31:01;17.10;;;11.50;;
62947;SDS011;51940;52.126;-0.994;2022-12-16T05:33:45;21.30;;;11.90;;
62947;SDS011;51940;52.126;-0.994;2022-12-16T05:36:29;20.80;;;11.50;;
62947;SDS011;51940;52.126;-0.994;2022-12-16T05:39:13;20.40;;;11.50;;
62947;SDS011;51940;52.126;-0.994;2022-12-16T05:41:57;19.00;;;11.10;;
62947;SDS011;51940;52.126;-0.994;2022-12-16T05:44:41;19.30;;;12.50;;
62947;SDS011;51940;52.126;-0.994;2022-12-16T05:47:25;16.70;;;12.10;;
62947;SDS011;51940;52.126;-0.994;2022-12-16T05:50:10;18.10;;;12.70;;
62947;SDS011;51940;52.126;-0.994;2022-12-16T05:52:54;19.40;;;12.20;;
62947;SDS011;51940;52.126;-0.994;2022-12-16T05:58:24;17.80;;;11.60;;
62947;SDS011;51940;52.126;-0.994;2022-12-16T06:03:53;20.40;;;12.10;;
62947;SDS011;51940;52.126;-0.994;2022-12-16T06:06:38;19.30;;;12.60;;
62947;SDS011;51940;52.126;-0.994;2022-12-16T06:09:23;21.00;;;12.30;;
62947;SDS011;51940;52.126;-0.994;2022-12-16T06:12:07;20.70;;;12.20;;
62947;SDS011;51940;52.126;-0.994;2022-12-16T06:14:51;24.90;;;12.10;;
62947;SDS011;51940;52.126;-0.994;2022-12-16T06:17:35;19.00;;;12.20;;
62947;SDS011;51940;52.126;-0.994;2022-12-16T06:20:19;24.60;;;12.40;;
62947;SDS011;51940;52.126;-0.994;2022-12-16T06:23:03;19.30;;;11.60;;
62947;SDS011;51940;52.126;-0.994;2022-12-16T06:25:48;20.60;;;12.60;;
62947;SDS011;51940;52.126;-0.994;2022-12-16T06:28:32;22.50;;;13.30;;
62947;SDS011;51940;52.126;-0.994;2022-12-16T06:31:16;21.20;;;12.20;;
62947;SDS011;51940;52.126;-0.994;2022-12-16T06:34:01;21.70;;;12.40;;
62947;SDS011;51940;52.126;-0.994;2022-12-16T06:36:45;20.00;;;11.80;;
62947;SDS011;51940;52.126;-0.994;2022-12-16T06:39:29;20.00;;;12.20;;
62947;SDS011;51940;52.126;-0.994;2022-12-16T06:42:13;20.70;;;11.70;;
62947;SDS011;51940;52.126;-0.994;2022-12-16T06:44:57;22.60;;;12.80;;
62947;SDS011;51940;52.126;-0.994;2022-12-16T06:47:42;20.10;;;13.10;;
62947;SDS011;51940;52.126;-0.994;2022-12-16T06:50:27;21.40;;;12.50;;
62947;SDS011;51940;52.126;-0.994;2022-12-16T06:53:12;22.20;;;12.10;;
62947;SDS011;51940;52.126;-0.994;2022-12-16T06:55:56;23.30;;;13.00;;
62947;SDS011;51940;52.126;-0.994;2022-12-16T06:58:40;21.00;;;12.60;;
62947;SDS011;51940;52.126;-0.994;2022-12-16T07:01:24;21.90;;;12.10;;
62947;SDS011;51940;52.126;-0.994;2022-12-16T07:04:08;18.90;;;12.20;;
62947;SDS011;51940;52.126;-0.994;2022-12-16T07:06:52;18.20;;;12.30;;
62947;SDS011;51940;52.126;-0.994;2022-12-16T07:09:36;20.40;;;12.70;;
62947;SDS011;51940;52.126;-0.994;2022-12-16T07:12:21;21.40;;;13.60;;
62947;SDS011;51940;52.126;-0.994;2022-12-16T07:15:05;24.80;;;12.80;;
62947;SDS011;51940;52.126;-0.994;2022-12-16T07:17:50;24.20;;;13.10;;
62947;SDS011;51940;52.126;-0.994;2022-12-16T07:20:34;23.90;;;12.10;;
62947;SDS011;51940;52.126;-0.994;2022-12-16T07:23:18;24.30;;;13.80;;
62947;SDS011;51940;52.126;-0.994;2022-12-16T07:26:02;25.30;;;12.90;;
62947;SDS011;51940;52.126;-0.994;2022-12-16T07:28:46;26.60;;;13.90;;
62947;SDS011;51940;52.126;-0.994;2022-12-16T07:31:30;24.10;;;13.50;;
62947;SDS011;51940;52.126;-0.994;2022-12-16T07:34:15;22.10;;;12.80;;
62947;SDS011;51940;52.126;-0.994;2022-12-16T07:36:59;22.90;;;12.70;;
62947;SDS011;51940;52.126;-0.994;2022-12-16T07:39:43;21.60;;;13.50;;
62947;SDS011;51940;52.126;-0.994;2022-12-16T07:42:27;25.50;;;13.10;;
62947;SDS011;51940;52.126;-0.994;2022-12-16T07:45:12;28.20;;;13.40;;
62947;SDS011;51940;52.126;-0.994;2022-12-16T07:47:56;20.60;;;13.10;;
62947;SDS011;51940;52.126;-0.994;2022-12-16T07:50:40;23.60;;;12.20;;
62947;SDS011;51940;52.126;-0.994;2022-12-16T07:53:24;21.10;;;13.40;;
62947;SDS011;51940;52.126;-0.994;2022-12-16T07:58:54;22.60;;;12.60;;
62947;SDS011;51940;52.126;-0.994;2022-12-16T08:01:38;21.50;;;12.50;;
62947;SDS011;51940;52.126;-0.994;2022-12-16T08:04:22;24.50;;;12.60;;
62947;SDS011;51940;52.126;-0.994;2022-12-16T08:07:06;21.90;;;13.30;;
62947;SDS011;51940;52.126;-0.994;2022-12-16T08:09:50;24.30;;;13.30;;
62947;SDS011;51940;52.126;-0.994;2022-12-16T08:12:35;21.70;;;14.00;;
62947;SDS011;51940;52.126;-0.994;2022-12-16T08:15:19;21.90;;;12.80;;
62947;SDS011;51940;52.126;-0.994;2022-12-16T08:18:03;24.80;;;14.00;;
62947;SDS011;51940;52.126;-0.994;2022-12-16T08:20:47;25.50;;;13.50;;
62947;SDS011;51940;52.126;-0.994;2022-12-16T08:23:42;26.40;;;14.90;;
62947;SDS011;51940;52.126;-0.994;2022-12-16T08:26:25;24.80;;;13.70;;
62947;SDS011;51940;52.126;-0.994;2022-12-16T08:29:10;23.20;;;13.60;;
62947;SDS011;51940;52.126;-0.994;2022-12-16T08:31:54;21.50;;;13.00;;
62947;SDS011;51940;52.126;-0.994;2022-12-16T08:34:38;24.30;;;13.30;;
62947;SDS011;51940;52.126;-0.994;2022-12-16T08:37:22;22.10;;;12.50;;
62947;SDS011;51940;52.126;-0.994;2022-12-16T08:40:06;24.50;;;13.70;;
62947;SDS011;51940;52.126;-0.994;2022-12-16T08:42:51;24.30;;;12.70;;
62947;SDS011;51940;52.126;-0.994;2022-12-16T08:45:35;19.50;;;13.20;;
62947;SDS011;51940;52.126;-0.994;2022-12-16T08:48:19;22.00;;;12.10;;
62947;SDS011;51940;52.126;-0.994;2022-12-16T08:51:04;22.70;;;13.80;;
62947;SDS011;51940;52.126;-0.994;2022-12-16T08:53:49;25.00;;;13.90;;
62947;SDS011;51940;52.126;-0.994;2022-12-16T08:59:18;23.00;;;13.00;;
62947;SDS011;51940;52.126;-0.994;2022-12-16T09:02:03;26.90;;;14.60;;
62947;SDS011;51940;52.126;-0.994;2022-12-16T09:04:47;27.50;;;13.70;;
62947;SDS011;51940;52.126;-0.994;2022-12-16T09:07:31;25.80;;;13.50;;
62947;SDS011;51940;52.126;-0.994;2022-12-16T09:10:15;27.90;;;12.40;;
62947;SDS011;51940;52.126;-0.994;2022-12-16T09:13:11;25.40;;;13.80;;
62947;SDS011;51940;52.126;-0.994;2022-12-16T09:15:57;23.10;;;13.60;;
62947;SDS011;51940;52.126;-0.994;2022-12-16T09:18:41;26.60;;;14.30;;
62947;SDS011;51940;52.126;-0.994;2022-12-16T09:21:26;26.70;;;14.40;;
62947;SDS011;51940;52.126;-0.994;2022-12-16T09:24:10;23.70;;;14.30;;
62947;SDS011;51940;52.126;-0.994;2022-12-16T09:26:54;28.00;;;15.30;;
62947;SDS011;51940;52.126;-0.994;2022-12-16T09:29:39;28.50;;;14.60;;
62947;SDS011;51940;52.126;-0.994;2022-12-16T09:32:23;27.20;;;14.70;;
62947;SDS011;51940;52.126;-0.994;2022-12-16T09:35:07;27.90;;;14.50;;
62947;SDS011;51940;52.126;-0.994;2022-12-16T09:37:52;26.10;;;15.40;;
62947;SDS011;51940;52.126;-0.994;2022-12-16T09:40:37;30.20;;;16.00;;
62947;SDS011;51940;52.126;-0.994;2022-12-16T09:52:36;27.00;;;16.70;;
62947;SDS011;51940;52.126;-0.994;2022-12-16T09:55:29;27.50;;;15.60;;
62947;SDS011;51940;52.126;-0.994;2022-12-16T09:58:17;30.10;;;17.20;;
62947;SDS011;51940;52.126;-0.994;2022-12-16T10:01:04;33.30;;;20.10;;
62947;SDS011;51940;52.126;-0.994;2022-12-16T10:03:49;32.40;;;18.70;;
62947;SDS011;51940;52.126;-0.994;2022-12-16T10:06:36;29.40;;;18.00;;
62947;SDS011;51940;52.126;-0.994;2022-12-16T10:21:59;31.10;;;18.70;;
62947;SDS011;51940;52.126;-0.994;2022-12-16T10:24:59;36.00;;;20.30;;
62947;SDS011;51940;52.126;-0.994;2022-12-16T10:27:48;37.20;;;21.20;;
62947;SDS011;51940;52.126;-0.994;2022-12-16T10:30:34;36.10;;;21.20;;
62947;SDS011;51940;52.126;-0.994;2022-12-16T10:33:23;37.40;;;21.40;;
62947;SDS011;51940;52.126;-0.994;2022-12-16T10:36:17;37.70;;;21.50;;
62947;SDS011;51940;52.126;-0.994;2022-12-16T10:39:08;37.10;;;21.00;;
62947;SDS011;51940;52.126;-0.994;2022-12-16T10:42:15;36.40;;;21.40;;
62947;SDS011;51940;52.126;-0.994;2022-12-16T10:45:06;37.30;;;21.00;;
62947;SDS011;51940;52.126;-0.994;2022-12-16T10:48:02;44.00;;;23.70;;
62947;SDS011;51940;52.126;-0.994;2022-12-16T10:50:46;41.20;;;23.20;;
62947;SDS011;51940;52.126;-0.994;2022-12-16T10:53:30;44.40;;;23.50;;
62947;SDS011;51940;52.126;-0.994;2022-12-16T10:59:23;39.30;;;22.50;;
62947;SDS011;51940;52.126;-0.994;2022-12-16T11:02:19;41.50;;;23.50;;
62947;SDS011;51940;52.126;-0.994;2022-12-16T11:08:22;40.00;;;23.30;;
62947;SDS011;51940;52.126;-0.994;2022-12-16T11:11:11;44.70;;;25.30;;
62947;SDS011;51940;52.126;-0.994;2022-12-16T11:23:07;49.90;;;26.50;;
62947;SDS011;51940;52.126;-0.994;2022-12-16T11:29:07;49.00;;;26.80;;
62947;SDS011;51940;52.126;-0.994;2022-12-16T11:32:16;54.20;;;26.40;;
62947;SDS011;51940;52.126;-0.994;2022-12-16T11:35:05;48.50;;;27.60;;
62947;SDS011;51940;52.126;-0.994;2022-12-16T11:37:56;49.30;;;27.00;;
62947;SDS011;51940;52.126;-0.994;2022-12-16T11:40:41;49.90;;;26.90;;
62947;SDS011;51940;52.126;-0.994;2022-12-16T11:43:26;51.30;;;27.50;;
62947;SDS011;51940;52.126;-0.994;2022-12-16T11:46:13;50.80;;;26.10;;
62947;SDS011;51940;52.126;-0.994;2022-12-16T11:49:06;45.70;;;25.00;;
62947;SDS011;51940;52.126;-0.994;2022-12-16T11:51:56;53.50;;;27.10;;
62947;SDS011;51940;52.126;-0.994;2022-12-16T11:54:53;51.40;;;28.00;;
62947;SDS011;51940;52.126;-0.994;2022-12-16T12:00:58;51.60;;;27.00;;
62947;SDS011;51940;52.126;-0.994;2022-12-16T12:03:47;50.50;;;26.90;;
62947;SDS011;51940;52.126;-0.994;2022-12-16T12:10:05;56.20;;;27.50;;
62947;SDS011;51940;52.126;-0.994;2022-12-16T12:18:57;51.50;;;26.40;;
62947;SDS011;51940;52.126;-0.994;2022-12-16T12:21:48;52.00;;;25.90;;
62947;SDS011;51940;52.126;-0.994;2022-12-16T12:27:59;48.10;;;24.10;;
62947;SDS011;51940;52.126;-0.994;2022-12-16T12:30:53;42.90;;;25.10;;
62947;SDS011;51940;52.126;-0.994;2022-12-16T12:34:36;42.30;;;23.70;;
62947;SDS011;51940;52.126;-0.994;2022-12-16T12:37:22;48.10;;;23.90;;
62947;SDS011;51940;52.126;-0.994;2022-12-16T12:46:38;37.40;;;22.10;;
62947;SDS011;51940;52.126;-0.994;2022-12-16T12:52:50;37.40;;;21.90;;
62947;SDS011;51940;52.126;-0.994;2022-12-16T12:59:24;40.10;;;21.50;;
62947;SDS011;51940;52.126;-0.994;2022-12-16T13:02:18;35.50;;;19.10;;
62947;SDS011;51940;52.126;-0.994;2022-12-16T13:05:10;32.80;;;19.70;;
62947;SDS011;51940;52.126;-0.994;2022-12-16T13:08:29;32.20;;;18.70;;
62947;SDS011;51940;52.126;-0.994;2022-12-16T13:11:19;31.80;;;17.20;;
62947;SDS011;51940;52.126;-0.994;2022-12-16T13:14:49;33.40;;;17.80;;
62947;SDS011;51940;52.126;-0.994;2022-12-16T13:17:14;28.80;;;17.50;;
62947;SDS011;51940;52.126;-0.994;2022-12-16T13:19:58;27.70;;;17.00;;
62947;SDS011;51940;52.126;-0.994;2022-12-16T13:22:43;26.60;;;16.60;;
62947;SDS011;51940;52.126;-0.994;2022-12-16T13:25:50;27.90;;;17.60;;
62947;SDS011;51940;52.126;-0.994;2022-12-16T13:28:35;29.40;;;17.80;;
62947;SDS011;51940;52.126;-0.994;2022-12-16T13:31:20;33.80;;;18.70;;
62947;SDS011;51940;52.126;-0.994;2022-12-16T13:34:27;35.30;;;20.20;;
62947;SDS011;51940;52.126;-0.994;2022-12-16T13:37:23;34.40;;;20.50;;
62947;SDS011;51940;52.126;-0.994;2022-12-16T13:40:19;32.90;;;19.90;;
62947;SDS011;51940;52.126;-0.994;2022-12-16T13:43:13;30.70;;;19.30;;
62947;SDS011;51940;52.126;-0.994;2022-12-16T13:46:20;31.90;;;19.30;;
62947;SDS011;51940;52.126;-0.994;2022-12-16T13:52:20;27.70;;;18.70;;
62947;SDS011;51940;52.126;-0.994;2022-12-16T13:55:18;27.90;;;18.50;;
62947;SDS011;51940;52.126;-0.994;2022-12-16T13:58:31;30.60;;;19.40;;
62947;SDS011;51940;52.126;-0.994;2022-12-16T14:01:21;29.00;;;18.70;;
62947;SDS011;51940;52.126;-0.994;2022-12-16T14:04:14;31.80;;;19.30;;
62947;SDS011;51940;52.126;-0.994;2022-12-16T14:09:52;24.80;;;15.90;;
62947;SDS011;51940;52.126;-0.994;2022-12-16T14:12:57;26.20;;;16.10;;
62947;SDS011;51940;52.126;-0.994;2022-12-16T14:18:47;25.30;;;15.90;;
62947;SDS011;51940;52.126;-0.994;2022-12-16T14:21:45;25.70;;;16.70;;
62947;SDS011;51940;52.126;-0.994;2022-12-16T14:24:34;30.00;;;16.70;;
62947;SDS011;51940;52.126;-0.994;2022-12-16T14:27:21;27.70;;;16.30;;
62947;SDS011;51940;52.126;-0.994;2022-12-16T14:30:15;24.80;;;16.70;;
62947;SDS011;51940;52.126;-0.994;2022-12-16T14:33:14;24.90;;;16.10;;
62947;SDS011;51940;52.126;-0.994;2022-12-16T14:35:58;22.60;;;15.00;;
62947;SDS011;51940;52.126;-0.994;2022-12-16T14:38:46;22.80;;;15.60;;
62947;SDS011;51940;52.126;-0.994;2022-12-16T14:41:31;24.70;;;15.50;;
62947;SDS011;51940;52.126;-0.994;2022-12-16T14:44:19;24.00;;;15.80;;
62947;SDS011;51940;52.126;-0.994;2022-12-16T14:47:20;28.90;;;16.40;;
62947;SDS011;51940;52.126;-0.994;2022-12-16T14:50:26;28.40;;;17.90;;
62947;SDS011;51940;52.126;-0.994;2022-12-16T14:53:19;32.60;;;17.30;;
62947;SDS011;51940;52.126;-0.994;2022-12-16T14:56:23;27.70;;;17.90;;
62947;SDS011;51940;52.126;-0.994;2022-12-16T15:02:07;29.10;;;16.70;;
62947;SDS011;51940;52.126;-0.994;2022-12-16T15:05:04;34.40;;;19.20;;
62947;SDS011;51940;52.126;-0.994;2022-12-16T15:07:49;34.50;;;18.00;;
62947;SDS011;51940;52.126;-0.994;2022-12-16T15:10:33;28.90;;;18.00;;
62947;SDS011;51940;52.126;-0.994;2022-12-16T15:13:18;32.70;;;18.50;;
62947;SDS011;51940;52.126;-0.994;2022-12-16T15:16:03;32.60;;;18.80;;
62947;SDS011;51940;52.126;-0.994;2022-12-16T15:18:52;36.70;;;19.20;;
62947;SDS011;51940;52.126;-0.994;2022-12-16T15:21:42;35.80;;;19.70;;
62947;SDS011;51940;52.126;-0.994;2022-12-16T15:24:27;40.60;;;21.10;;
62947;SDS011;51940;52.126;-0.994;2022-12-16T15:27:23;46.50;;;24.40;;
62947;SDS011;51940;52.126;-0.994;2022-12-16T15:33:24;39.40;;;22.00;;
62947;SDS011;51940;52.126;-0.994;2022-12-16T15:36:22;41.10;;;21.50;;
62947;SDS011;51940;52.126;-0.994;2022-12-16T15:39:13;38.20;;;21.70;;
62947;SDS011;51940;52.126;-0.994;2022-12-16T15:42:05;56.50;;;29.10;;
62947;SDS011;51940;52.126;-0.994;2022-12-16T15:45:21;37.60;;;22.80;;
62947;SDS011;51940;52.126;-0.994;2022-12-16T15:48:15;37.70;;;21.80;;
62947;SDS011;51940;52.126;-0.994;2022-12-16T15:51:03;38.80;;;22.70;;
62947;SDS011;51940;52.126;-0.994;2022-12-16T15:53:59;40.00;;;24.10;;
62947;SDS011;51940;52.126;-0.994;2022-12-16T15:56:47;42.00;;;23.00;;
62947;SDS011;51940;52.126;-0.994;2022-12-16T15:59:32;45.00;;;26.50;;
62947;SDS011;51940;52.126;-0.994;2022-12-16T16:02:19;42.70;;;24.50;;
62947;SDS011;51940;52.126;-0.994;2022-12-16T16:05:10;39.00;;;22.20;;
62947;SDS011;51940;52.126;-0.994;2022-12-16T16:07:56;38.10;;;21.90;;
62947;SDS011;51940;52.126;-0.994;2022-12-16T16:10:41;40.80;;;22.50;;
62947;SDS011;51940;52.126;-0.994;2022-12-16T16:13:26;38.50;;;22.40;;
62947;SDS011;51940;52.126;-0.994;2022-12-16T16:16:11;41.10;;;23.50;;
62947;SDS011;51940;52.126;-0.994;2022-12-16T16:18:56;42.20;;;22.10;;
62947;SDS011;51940;52.126;-0.994;2022-12-16T16:21:40;46.20;;;23.80;;
62947;SDS011;51940;52.126;-0.994;2022-12-16T16:24:25;40.70;;;24.40;;
62947;SDS011;51940;52.126;-0.994;2022-12-16T16:27:11;46.80;;;23.60;;
62947;SDS011;51940;52.126;-0.994;2022-12-16T16:29:57;44.20;;;25.60;;
62947;SDS011;51940;52.126;-0.994;2022-12-16T16:32:42;47.30;;;25.70;;
62947;SDS011;51940;52.126;-0.994;2022-12-16T16:35:27;46.70;;;26.90;;
62947;SDS011;51940;52.126;-0.994;2022-12-16T16:38:13;46.50;;;25.80;;
62947;SDS011;51940;52.126;-0.994;2022-12-16T16:40:57;45.60;;;25.70;;
62947;SDS011;51940;52.126;-0.994;2022-12-16T16:43:41;55.70;;;28.40;;
62947;SDS011;51940;52.126;-0.994;2022-12-16T16:49:19;51.40;;;26.20;;
62947;SDS011;51940;52.126;-0.994;2022-12-16T16:52:10;51.10;;;24.60;;
62947;SDS011;51940;52.126;-0.994;2022-12-16T16:54:56;47.10;;;24.60;;
62947;SDS011;51940;52.126;-0.994;2022-12-16T16:57:40;49.10;;;25.10;;
62947;SDS011;51940;52.126;-0.994;2022-12-16T17:00:24;42.60;;;22.60;;
62947;SDS011;51940;52.126;-0.994;2022-12-16T17:03:08;46.00;;;24.70;;
62947;SDS011;51940;52.126;-0.994;2022-12-16T17:05:53;56.20;;;30.50;;
62947;SDS011;51940;52.126;-0.994;2022-12-16T17:08:38;57.80;;;30.30;;
62947;SDS011;51940;52.126;-0.994;2022-12-16T17:11:22;51.50;;;27.00;;
62947;SDS011;51940;52.126;-0.994;2022-12-16T17:14:10;46.90;;;25.90;;
62947;SDS011;51940;52.126;-0.994;2022-12-16T17:17:01;48.80;;;25.90;;
62947;SDS011;51940;52.126;-0.994;2022-12-16T17:19:46;52.30;;;25.20;;
62947;SDS011;51940;52.126;-0.994;2022-12-16T17:22:30;43.00;;;24.50;;
62947;SDS011;51940;52.126;-0.994;2022-12-16T17:25:16;45.90;;;24.70;;
62947;SDS011;51940;52.126;-0.994;2022-12-16T17:28:00;48.60;;;25.60;;
62947;SDS011;51940;52.126;-0.994;2022-12-16T17:30:45;47.90;;;24.80;;
62947;SDS011;51940;52.126;-0.994;2022-12-16T17:33:29;46.00;;;24.90;;
62947;SDS011;51940;52.126;-0.994;2022-12-16T17:36:14;49.40;;;26.60;;
62947;SDS011;51940;52.126;-0.994;2022-12-16T17:39:00;50.30;;;26.50;;
62947;SDS011;51940;52.126;-0.994;2022-12-16T17:41:46;48.10;;;25.70;;